Time;durP1;ratioP1;P1;durP2;ratioP2;P2;SDS_P1;SDS_P2;PMS_P1;PMS_P2;Temp;Humidity;BMP_temperature;BMP_pressure;BME280_temperature;BME280_humidity;BME280_pressure;Samples;Min_cycle;Max_cycle;Signal;HPM_P1;HPM_P2
2023/01/14 00:00:49;;;;;;;4.6;2.6;;;;;;;6;82.9;98740;;;;
2023/01/14 00:11:50;;;;;;;4.6;2.6;;;;;;;6;82.6;98750;;;;
2023/01/14 00:21:50;;;;;;;4.6;2.6;;;;;;;5.9;82.6;98760;;;;
2023/01/14 00:32:49;;;;;;;4.2;2.3;;;;;;;5.9;82.5;98770;;;;
2023/01/14 00:42:49;;;;;;;4.2;2.3;;;;;;;5.9;82.5;98780;;;;
2023/01/14 00:53:49;;;;;;;4.2;2.3;;;;;;;5.9;82.3;98790;;;;
2023/01/14 01:03:49;;;;;;;4.5;2.5;;;;;;;5.8;82.7;98780;;;;
2023/01/14 01:14:49;;;;;;;4.5;2.5;;;;;;;5.8;82.3;98780;;;;
2023/01/14 01:24:49;;;;;;;2.6;1.7;;;;;;;5.7;82.3;98790;;;;
2023/01/14 01:34:49;;;;;;;2.6;1.7;;;;;;;5.7;82.5;98780;;;;
2023/01/14 01:44:49;;;;;;;2.6;1.7;;;;;;;5.6;82.5;98800;;;;
2023/01/14 01:54:49;;;;;;;3;1.6;;;;;;;5.5;82.7;98800;;;;
2023/01/14 02:05:49;;;;;;;3;1.6;;;;;;;5.4;82.8;98790;;;;
2023/01/14 02:16:49;;;;;;;3;1.6;;;;;;;5.3;83.2;98800;;;;
2023/01/14 02:27:49;;;;;;;4.6;1.5;;;;;;;5.2;83.4;98810;;;;
2023/01/14 02:37:49;;;;;;;4.6;1.5;;;;;;;5.2;83.1;98810;;;;
2023/01/14 02:48:49;;;;;;;4.6;1.5;;;;;;;5.1;83;98810;;;;
2023/01/14 02:59:49;;;;;;;3.1;1.6;;;;;;;5.1;82.8;98820;;;;
2023/01/14 03:09:49;;;;;;;3.1;1.6;;;;;;;4.9;83.1;98830;;;;
2023/01/14 03:19:49;;;;;;;3.1;1.6;;;;;;;4.7;83.2;98830;;;;
2023/01/14 03:30:49;;;;;;;2.6;1.2;;;;;;;4.5;84;98850;;;;
2023/01/14 03:40:49;;;;;;;2.6;1.2;;;;;;;4.4;84.3;98860;;;;
2023/01/14 03:51:49;;;;;;;2.6;1.2;;;;;;;4.5;84.5;98880;;;;
2023/01/14 04:01:49;;;;;;;2.8;1.6;;;;;;;4.7;84.5;98900;;;;
2023/01/14 04:23:49;;;;;;;2.8;1.6;;;;;;;5;83.6;98920;;;;
2023/01/14 04:33:49;;;;;;;4.1;2;;;;;;;5.1;83.5;98920;;;;
2023/01/14 04:44:49;;;;;;;4.1;2;;;;;;;5.2;83.2;98930;;;;
2023/01/14 04:55:49;;;;;;;3.5;1.4;;;;;;;5.3;82.9;98930;;;;
2023/01/14 05:05:49;;;;;;;3.5;1.4;;;;;;;5.3;83;98920;;;;
2023/01/14 05:16:49;;;;;;;3.5;1.4;;;;;;;5.4;82.9;98930;;;;
2023/01/14 05:27:49;;;;;;;3.7;1.8;;;;;;;5.5;82.4;98940;;;;
2023/01/14 05:37:49;;;;;;;3.7;1.8;;;;;;;5.4;82.2;98960;;;;
2023/01/14 05:47:49;;;;;;;3.7;1.8;;;;;;;5.5;82.3;98980;;;;
2023/01/14 05:57:49;;;;;;;5.4;2.6;;;;;;;5.5;82.4;98980;;;;
2023/01/14 06:07:49;;;;;;;5.4;2.6;;;;;;;5.7;82.3;98990;;;;
2023/01/14 06:17:57;;;;;;;5.4;2.6;;;;;;;5.7;82;99000;;;;
2023/01/14 06:27:49;;;;;;;5.4;3.2;;;;;;;5.8;81.7;99010;;;;
2023/01/14 06:38:49;;;;;;;5.4;3.2;;;;;;;5.9;81.5;99020;;;;
2023/01/14 06:49:49;;;;;;;5.4;3.2;;;;;;;5.9;81.4;99030;;;;
2023/01/14 06:59:49;;;;;;;5.6;3.1;;;;;;;6;81.3;99040;;;;
2023/01/14 07:09:49;;;;;;;5.6;3.1;;;;;;;6.1;81;99050;;;;
2023/01/14 07:20:49;;;;;;;5.6;3.1;;;;;;;6.1;81;99050;;;;
2023/01/14 07:30:49;;;;;;;4.7;2.7;;;;;;;6.3;81;99060;;;;
2023/01/14 07:40:49;;;;;;;4.7;2.7;;;;;;;6.5;80.5;99060;;;;
2023/01/14 07:51:49;;;;;;;4.7;2.7;;;;;;;6.7;79.6;99060;;;;
2023/01/14 08:01:49;;;;;;;5.2;3.5;;;;;;;6.9;79;99070;;;;
2023/01/14 08:11:49;;;;;;;5.2;3.5;;;;;;;7.3;78.8;99090;;;;
2023/01/14 08:21:49;;;;;;;5.2;3.5;;;;;;;7.5;77.6;99090;;;;
2023/01/14 08:32:49;;;;;;;7.4;4.4;;;;;;;7.7;76.9;99090;;;;
2023/01/14 08:42:49;;;;;;;7.4;4.4;;;;;;;7.9;76.8;99100;;;;
2023/01/14 08:52:49;;;;;;;7.4;4.4;;;;;;;8.1;76.6;99120;;;;
2023/01/14 09:02:49;;;;;;;12.6;7.8;;;;;;;8.3;75.5;99130;;;;
2023/01/14 09:23:49;;;;;;;8.8;4.6;;;;;;;8.5;74;99120;;;;
2023/01/14 09:33:49;;;;;;;8.8;4.6;;;;;;;8.6;73;99120;;;;
2023/01/14 09:44:51;;;;;;;8.8;4.6;;;;;;;8.8;73.5;99110;;;;
2023/01/14 09:55:50;;;;;;;7.8;4.9;;;;;;;8.8;72;99120;;;;
2023/01/14 10:06:49;;;;;;;7.8;4.9;;;;;;;8.8;72.5;99110;;;;
2023/01/14 10:16:49;;;;;;;7.8;4.9;;;;;;;8.8;72.3;99100;;;;
2023/01/14 10:27:49;;;;;;;11.1;8;;;;;;;8.9;71.5;99090;;;;
2023/01/14 10:37:49;;;;;;;11.1;8;;;;;;;9.2;71.4;99090;;;;
2023/01/14 10:48:50;;;;;;;11.1;8;;;;;;;9.4;69.5;99100;;;;
2023/01/14 10:58:49;;;;;;;15;8.9;;;;;;;9.3;69.6;99070;;;;
2023/01/14 11:09:49;;;;;;;15;8.9;;;;;;;9.4;69.3;99070;;;;
2023/01/14 11:20:49;;;;;;;15;8.9;;;;;;;9.4;68.2;99070;;;;
2023/01/14 11:30:49;;;;;;;12.5;8.3;;;;;;;9.6;68;99070;;;;
2023/01/14 11:41:54;;;;;;;12.5;8.3;;;;;;;9.6;68.3;99060;;;;
2023/01/14 11:50:49;;;;;;;12.5;8.3;;;;;;;9.5;68;99050;;;;
2023/01/14 12:00:50;;;;;;;17.8;8.5;;;;;;;9;69.4;99040;;;;
2023/01/14 12:11:49;;;;;;;17.8;8.5;;;;;;;8.8;70.8;99040;;;;
2023/01/14 12:22:49;;;;;;;17.8;8.5;;;;;;;8.9;71;99030;;;;
2023/01/14 12:32:49;;;;;;;15.5;8.8;;;;;;;8.9;70.9;99010;;;;
2023/01/14 12:52:49;;;;;;;15.5;8.8;;;;;;;8.9;70.8;99000;;;;
2023/01/14 13:03:49;;;;;;;9.2;5.5;;;;;;;8.8;70.7;99000;;;;
2023/01/14 13:14:49;;;;;;;9.2;5.5;;;;;;;8.9;71;99010;;;;
2023/01/14 13:24:49;;;;;;;9;4.6;;;;;;;9.3;70.8;98990;;;;
2023/01/14 13:34:49;;;;;;;9;4.6;;;;;;;9.7;68.1;98990;;;;
2023/01/14 13:45:49;;;;;;;9;4.6;;;;;;;9.6;67;98990;;;;
2023/01/14 13:56:49;;;;;;;10.6;4.6;;;;;;;9.5;67.9;98990;;;;
2023/01/14 14:07:49;;;;;;;10.6;4.6;;;;;;;9;68.2;98980;;;;
2023/01/14 14:18:49;;;;;;;10.6;4.6;;;;;;;8.5;68.5;98990;;;;
2023/01/14 14:29:49;;;;;;;8.1;4.5;;;;;;;8.1;69;98980;;;;
2023/01/14 14:40:49;;;;;;;8.1;4.5;;;;;;;7.8;69.3;98970;;;;
2023/01/14 14:50:49;;;;;;;8.1;4.5;;;;;;;7.3;70.3;98970;;;;
2023/01/14 15:00:50;;;;;;;7.6;4.1;;;;;;;6.9;70.7;98960;;;;
2023/01/14 15:11:49;;;;;;;7.6;4.1;;;;;;;6.3;72.8;98950;;;;
2023/01/14 15:21:49;;;;;;;7.6;4.1;;;;;;;5.9;74.1;98950;;;;
2023/01/14 15:31:49;;;;;;;11.7;7.6;;;;;;;5.5;74.3;98950;;;;
2023/01/14 15:42:50;;;;;;;11.7;7.6;;;;;;;5.1;75.1;98950;;;;
2023/01/14 15:52:50;;;;;;;11.7;7.6;;;;;;;5;76.5;98950;;;;
2023/01/14 16:02:51;;;;;;;15.6;9.1;;;;;;;4.8;75.8;98950;;;;
2023/01/14 16:12:50;;;;;;;15.6;9.1;;;;;;;4.6;75.8;98950;;;;
2023/01/14 16:23:49;;;;;;;14.6;9.1;;;;;;;4.2;76.5;98950;;;;
2023/01/14 16:34:50;;;;;;;14.6;9.1;;;;;;;3.8;76.9;98930;;;;
2023/01/14 16:45:49;;;;;;;14.6;9.1;;;;;;;3.5;77.5;98920;;;;
2023/01/14 16:55:49;;;;;;;25.2;13.5;;;;;;;3.4;79;98920;;;;
2023/01/14 17:05:50;;;;;;;25.2;13.5;;;;;;;3.5;79;98910;;;;
2023/01/14 17:16:49;;;;;;;25.2;13.5;;;;;;;3.4;78.7;98880;;;;
2023/01/14 17:27:50;;;;;;;12.9;8.6;;;;;;;3.3;78;98860;;;;
2023/01/14 17:37:51;;;;;;;12.9;8.6;;;;;;;3;77.7;98850;;;;
2023/01/14 17:47:50;;;;;;;12.9;8.6;;;;;;;2.8;77.8;98830;;;;
2023/01/14 17:57:50;;;;;;;19.9;10.7;;;;;;;2.5;78.4;98830;;;;
2023/01/14 18:08:49;;;;;;;19.9;10.7;;;;;;;2.4;79;98830;;;;
2023/01/14 18:19:50;;;;;;;19.9;10.7;;;;;;;2.2;79.5;98830;;;;
2023/01/14 18:29:50;;;;;;;22.8;12.4;;;;;;;2.1;80.1;98830;;;;
2023/01/14 18:39:51;;;;;;;22.8;12.4;;;;;;;2;80.6;98820;;;;
2023/01/14 18:50:50;;;;;;;22.8;12.4;;;;;;;1.8;80.5;98810;;;;
2023/01/14 19:01:50;;;;;;;34.9;19.9;;;;;;;1.6;81;98780;;;;
2023/01/14 19:12:49;;;;;;;34.9;19.9;;;;;;;1.5;81.7;98760;;;;
2023/01/14 19:22:49;;;;;;;30.7;16.9;;;;;;;1.4;81.8;98740;;;;
2023/01/14 19:33:50;;;;;;;30.7;16.9;;;;;;;1.3;81.8;98720;;;;
2023/01/14 19:43:50;;;;;;;30.7;16.9;;;;;;;1.3;82.2;98700;;;;
2023/01/14 19:53:50;;;;;;;19.9;13.1;;;;;;;1.4;82.6;98680;;;;
2023/01/14 20:03:50;;;;;;;19.9;13.1;;;;;;;1.5;83.4;98660;;;;
2023/01/14 20:13:49;;;;;;;19.9;13.1;;;;;;;1.5;83.1;98650;;;;
2023/01/14 20:23:50;;;;;;;18.9;10.7;;;;;;;1.5;82.8;98630;;;;
2023/01/14 20:33:51;;;;;;;18.9;10.7;;;;;;;1.5;82.5;98620;;;;
2023/01/14 20:45:07;;;;;;;18.9;10.7;;;;;;;1.6;82.5;98610;;;;
2023/01/14 20:55:52;;;;;;;16.6;8.9;;;;;;;1.7;82.3;98600;;;;
2023/01/14 21:06:50;;;;;;;16.6;8.9;;;;;;;1.6;81.8;98600;;;;
2023/01/14 21:27:50;;;;;;;44.4;23.6;;;;;;;1.1;81.5;98600;;;;
2023/01/14 21:38:50;;;;;;;44.4;23.6;;;;;;;1.1;83;98590;;;;
2023/01/14 21:48:50;;;;;;;44.4;23.6;;;;;;;1.1;82.8;98590;;;;
2023/01/14 21:59:50;;;;;;;11.7;6.3;;;;;;;1.2;83.1;98580;;;;
2023/01/14 22:09:50;;;;;;;11.7;6.3;;;;;;;1.2;82.7;98560;;;;
2023/01/14 22:19:50;;;;;;;11.7;6.3;;;;;;;1.3;82.6;98550;;;;
2023/01/14 22:29:50;;;;;;;13.6;6.7;;;;;;;1.3;82.5;98530;;;;
2023/01/14 22:40:50;;;;;;;13.6;6.7;;;;;;;1.3;82.5;98520;;;;
2023/01/14 22:51:50;;;;;;;13.8;6.5;;;;;;;1.4;82.4;98500;;;;
2023/01/14 23:01:50;;;;;;;13.8;6.5;;;;;;;1.4;82.1;98490;;;;
2023/01/14 23:11:51;;;;;;;13.8;6.5;;;;;;;1.5;81.9;98460;;;;
2023/01/14 23:31:50;;;;;;;10.3;6.4;;;;;;;1.6;81.8;98390;;;;
2023/01/14 23:42:50;;;;;;;10.3;6.4;;;;;;;1.7;81.6;98360;;;;
2023/01/14 23:53:50;;;;;;;6.3;3.4;;;;;;;1.8;81.3;98360;;;;
